Time;durP1;ratioP1;P1;durP2;ratioP2;P2;SDS_P1;SDS_P2;PMS_P1;PMS_P2;Temp;Humidity;BMP_temperature;BMP_pressure;BME280_temperature;BME280_humidity;BME280_pressure;Samples;Min_cycle;Max_cycle;Signal;HPM_P1;HPM_P2
2022/10/05 00:01:14;;;;;;;4.57;4.17;;;12.80;38.20;;;;;;10463586;28;20225;-76
2022/10/05 00:06:17;;;;;;;3.40;3.20;;;12.80;38.30;;;;;;10471898;28;20236;-77
2022/10/05 00:11:20;;;;;;;4.43;4.03;;;12.70;38.20;;;;;;10473309;28;20239;-77
2022/10/05 00:16:25;;;;;;;3.40;3.20;;;12.60;38.20;;;;;;10474156;28;20731;-76
2022/10/05 00:21:29;;;;;;;3.80;3.37;;;12.50;38.30;;;;;;10467299;28;20256;-76
2022/10/05 00:26:33;;;;;;;3.60;3.30;;;12.50;38.30;;;;;;10474868;28;20769;-76
2022/10/05 00:31:38;;;;;;;3.90;3.50;;;12.50;38.50;;;;;;10465530;28;20240;-76
2022/10/05 00:36:41;;;;;;;4.27;3.87;;;12.50;38.60;;;;;;10467168;28;20220;-76
2022/10/05 00:42:00;;;;;;;4.00;3.60;;;12.40;38.30;;;;;;10462140;28;20225;-76
2022/10/05 00:47:17;;;;;;;3.17;2.87;;;12.30;38.10;;;;;;10473162;28;20224;-76
2022/10/05 00:52:31;;;;;;;3.53;3.23;;;12.10;38.20;;;;;;10475661;28;20236;-76
2022/10/05 00:57:43;;;;;;;4.23;3.53;;;12.00;38.60;;;;;;10461430;28;20228;-76
2022/10/05 01:02:57;;;;;;;3.70;3.30;;;11.90;38.80;;;;;;10466707;28;20228;-77
2022/10/05 01:08:09;;;;;;;4.50;4.10;;;11.90;39.10;;;;;;10467735;28;20290;-76
2022/10/05 01:13:23;;;;;;;5.33;3.70;;;11.80;39.00;;;;;;10475847;28;20276;-76
2022/10/05 01:18:37;;;;;;;5.80;3.53;;;11.80;39.10;;;;;;10470963;28;20265;-76
2022/10/05 01:24:18;;;;;;;3.70;3.40;;;11.70;39.30;;;;;;10477306;28;20235;-77
2022/10/05 01:29:25;;;;;;;3.93;3.50;;;11.70;39.50;;;;;;10452866;28;20240;-77
2022/10/05 01:34:36;;;;;;;5.67;4.00;;;11.70;39.30;;;;;;10463801;28;20241;-76
2022/10/05 01:39:49;;;;;;;4.10;3.70;;;11.70;39.50;;;;;;10465766;28;20233;-76
2022/10/05 01:45:03;;;;;;;4.17;3.10;;;11.70;39.50;;;;;;10467726;28;20266;-76
2022/10/05 01:50:12;;;;;;;5.57;3.47;;;11.70;39.50;;;;;;10464201;28;20232;-76
2022/10/05 01:55:22;;;;;;;4.20;3.77;;;11.70;39.40;;;;;;10468152;28;20236;-77
2022/10/05 02:00:29;;;;;;;4.10;3.70;;;11.60;39.20;;;;;;10465888;28;20232;-76
2022/10/05 02:05:39;;;;;;;3.87;3.40;;;11.60;39.40;;;;;;10466629;28;20228;-78
2022/10/05 02:10:46;;;;;;;4.60;4.03;;;11.50;39.50;;;;;;10464790;28;20228;-77
2022/10/05 02:15:56;;;;;;;4.50;4.10;;;11.50;39.80;;;;;;10472905;28;20228;-77
2022/10/05 02:21:01;;;;;;;3.83;3.53;;;11.40;40.30;;;;;;10468797;28;20224;-77
2022/10/05 02:26:06;;;;;;;5.00;4.50;;;11.30;39.80;;;;;;10467024;28;20267;-76
2022/10/05 02:31:14;;;;;;;9.43;5.37;;;11.30;39.80;;;;;;10459035;28;20274;-76
2022/10/05 02:36:23;;;;;;;5.70;4.33;;;11.20;40.30;;;;;;10476219;28;20232;-76
2022/10/05 02:41:41;;;;;;;5.07;4.30;;;11.20;40.30;;;;;;10467334;28;20236;-76
2022/10/05 02:46:52;;;;;;;6.07;5.20;;;11.20;40.40;;;;;;10470179;28;20228;-76
2022/10/05 02:52:07;;;;;;;5.73;5.07;;;11.20;40.20;;;;;;10470072;28;20609;-76
2022/10/05 02:57:23;;;;;;;5.30;4.80;;;11.10;40.30;;;;;;10470761;28;20231;-76
2022/10/05 03:02:33;;;;;;;5.10;4.70;;;11.10;40.40;;;;;;10467821;28;20232;-76
2022/10/05 03:07:43;;;;;;;4.73;4.27;;;11.10;40.30;;;;;;10479206;28;20254;-76
2022/10/05 03:12:52;;;;;;;5.87;5.23;;;11.00;40.10;;;;;;10468322;28;20705;-76
2022/10/05 03:18:05;;;;;;;4.67;4.27;;;11.00;40.50;;;;;;10474473;28;20626;-76
2022/10/05 03:23:17;;;;;;;5.23;4.73;;;11.00;40.50;;;;;;10472151;28;20275;-76
2022/10/05 03:28:27;;;;;;;4.77;4.37;;;11.00;40.40;;;;;;10473419;28;20332;-76
2022/10/05 03:33:41;;;;;;;4.50;4.10;;;11.00;40.50;;;;;;10478618;28;20220;-76
2022/10/05 03:38:50;;;;;;;4.90;4.17;;;11.00;40.80;;;;;;10476868;28;20274;-76
2022/10/05 03:44:07;;;;;;;4.10;3.77;;;11.00;40.50;;;;;;10475402;28;20229;-76
2022/10/05 03:49:19;;;;;;;4.43;3.83;;;11.00;40.80;;;;;;10468717;28;20251;-76
2022/10/05 03:54:28;;;;;;;3.97;3.67;;;11.00;40.80;;;;;;10473848;28;20648;-77
2022/10/05 03:59:38;;;;;;;4.37;3.97;;;11.00;40.60;;;;;;10477621;28;20236;-76
2022/10/05 04:04:47;;;;;;;3.90;3.60;;;11.00;40.80;;;;;;10472219;28;20235;-76
2022/10/05 04:09:53;;;;;;;4.33;3.80;;;11.00;40.80;;;;;;10467398;28;20229;-76
2022/10/05 04:15:00;;;;;;;3.87;3.57;;;11.00;40.80;;;;;;10474867;28;20278;-76
2022/10/05 04:20:17;;;;;;;3.87;3.50;;;11.00;40.80;;;;;;10474040;28;20294;-76
2022/10/05 04:25:24;;;;;;;4.30;3.90;;;10.90;40.70;;;;;;10475692;28;20232;-76
2022/10/05 04:30:29;;;;;;;4.10;3.70;;;10.90;40.50;;;;;;10475323;28;20239;-76
2022/10/05 04:35:58;;;;;;;4.27;3.77;;;10.90;40.10;;;;;;10467371;28;20602;-76
2022/10/05 04:41:14;;;;;;;3.40;3.10;;;10.90;40.70;;;;;;10464707;28;20229;-76
2022/10/05 04:46:29;;;;;;;3.00;2.80;;;10.80;40.60;;;;;;10468660;28;20285;-76
2022/10/05 04:51:42;;;;;;;4.03;3.73;;;10.80;40.60;;;;;;10467270;28;20236;-75
2022/10/05 04:56:54;;;;;;;4.40;4.10;;;10.80;40.60;;;;;;10469782;28;20327;-76
2022/10/05 05:02:05;;;;;;;4.10;3.80;;;10.80;40.50;;;;;;10464618;28;20228;-76
2022/10/05 05:07:21;;;;;;;4.20;3.90;;;10.80;40.60;;;;;;10470411;28;20232;-76
2022/10/05 05:12:31;;;;;;;4.73;4.30;;;10.80;40.60;;;;;;10469455;28;20231;-76
2022/10/05 05:17:48;;;;;;;4.40;4.10;;;10.70;40.60;;;;;;10467980;28;20235;-76
2022/10/05 05:23:00;;;;;;;9.27;3.37;;;10.60;40.50;;;;;;10476138;28;20224;-75
2022/10/05 05:28:16;;;;;;;5.27;4.77;;;10.60;42.90;;;;;;10465480;28;20820;-82
2022/10/05 05:33:23;;;;;;;5.17;4.67;;;10.60;42.30;;;;;;10479902;28;20856;-81
2022/10/05 05:38:33;;;;;;;6.53;5.93;;;10.70;41.10;;;;;;10475648;28;20706;-82
2022/10/05 05:43:51;;;;;;;8.83;7.33;;;10.70;41.40;;;;;;10466660;28;20271;-82
2022/10/05 05:48:57;;;;;;;6.33;5.43;;;10.70;41.00;;;;;;10480570;28;20231;-81
2022/10/05 05:54:13;;;;;;;5.80;5.20;;;10.70;40.50;;;;;;10479175;28;20302;-81
2022/10/05 05:59:23;;;;;;;6.57;4.60;;;10.70;41.00;;;;;;10483283;28;20251;-82
2022/10/05 06:04:33;;;;;;;5.10;4.60;;;10.70;40.70;;;;;;10481062;28;20281;-83
2022/10/05 06:09:40;;;;;;;6.20;5.60;;;10.70;40.90;;;;;;10472825;28;20232;-81
2022/10/05 06:14:48;;;;;;;5.17;4.77;;;10.70;41.20;;;;;;10480212;28;20256;-81
2022/10/05 06:19:56;;;;;;;5.70;5.20;;;10.80;41.10;;;;;;10470996;28;20883;-81
2022/10/05 06:25:23;;;;;;;5.33;4.83;;;10.80;41.40;;;;;;10473364;28;20627;-84
2022/10/05 06:30:29;;;;;;;4.67;4.20;;;10.80;42.20;;;;;;10479046;28;20245;-83
2022/10/05 06:35:47;;;;;;;4.57;4.00;;;10.80;41.40;;;;;;10469457;28;20747;-76
2022/10/05 06:41:03;;;;;;;4.87;4.50;;;10.90;42.50;;;;;;10466634;28;20245;-77
2022/10/05 06:46:13;;;;;;;5.10;4.47;;;10.90;43.00;;;;;;10459121;28;20715;-77
2022/10/05 06:51:25;;;;;;;5.00;4.60;;;11.00;42.70;;;;;;10460537;28;20776;-77
2022/10/05 06:56:36;;;;;;;5.30;4.50;;;11.10;44.30;;;;;;10466154;28;20960;-76
2022/10/05 07:01:50;;;;;;;4.20;3.80;;;11.20;44.70;;;;;;10463958;28;20236;-77
2022/10/05 16:19:47;;;;;;;2.53;1.90;;;23.70;37.70;;;;;;10455848;28;20832;-78
2022/10/05 16:25:05;;;;;;;2.23;2.00;;;23.60;38.10;;;;;;10464904;28;20236;-78
2022/10/05 16:30:15;;;;;;;4.63;3.13;;;23.50;38.10;;;;;;10475253;28;20224;-78
2022/10/05 16:35:30;;;;;;;3.90;3.60;;;23.40;38.10;;;;;;10476462;28;20228;-78
2022/10/05 16:40:41;;;;;;;5.53;4.37;;;23.40;38.30;;;;;;10474166;28;20270;-77
2022/10/05 16:45:55;;;;;;;4.10;3.50;;;23.30;38.30;;;;;;10472968;28;20224;-78
2022/10/05 16:51:12;;;;;;;4.20;3.20;;;23.20;38.10;;;;;;10475769;28;20228;-78
2022/10/05 16:56:20;;;;;;;5.80;3.20;;;23.10;38.20;;;;;;10467288;28;20224;-77
2022/10/05 17:01:40;;;;;;;5.67;4.00;;;23.00;38.10;;;;;;10472757;28;20245;-77
2022/10/05 17:06:57;;;;;;;5.97;5.37;;;22.90;38.00;;;;;;10474207;28;20282;-77
2022/10/05 17:12:17;;;;;;;5.77;5.20;;;22.80;38.10;;;;;;10473873;28;20232;-79
2022/10/05 17:17:51;;;;;;;8.10;7.30;;;22.60;38.00;;;;;;10476591;28;20240;-80
2022/10/05 17:23:03;;;;;;;7.47;6.53;;;22.40;38.00;;;;;;10476483;28;20293;-80
2022/10/05 17:28:22;;;;;;;7.13;5.60;;;22.30;38.10;;;;;;10471971;28;20275;-80
2022/10/05 17:33:28;;;;;;;5.33;4.70;;;22.20;38.20;;;;;;10471046;28;20628;-80
2022/10/05 17:38:49;;;;;;;7.63;4.10;;;22.10;38.10;;;;;;10476180;28;20241;-80
2022/10/05 17:44:25;;;;;;;6.40;4.73;;;22.00;38.30;;;;;;10473943;28;20232;-80
2022/10/05 17:55:29;;;;;;;10.37;9.33;;;21.60;37.90;;;;;;10476535;28;20746;-79
2022/10/05 18:00:50;;;;;;;9.27;8.17;;;21.50;37.80;;;;;;10474991;28;20296;-80
2022/10/05 18:06:32;;;;;;;7.90;7.20;;;21.30;37.60;;;;;;10458217;28;20212;-80
2022/10/05 18:11:40;;;;;;;8.00;7.20;;;21.20;37.90;;;;;;10472751;28;20235;-80
2022/10/05 18:16:59;;;;;;;7.83;6.30;;;21.10;38.00;;;;;;10471652;28;20233;-80
2022/10/05 18:22:26;;;;;;;7.53;6.83;;;21.00;38.10;;;;;;10481280;28;20747;-79
2022/10/05 18:27:59;;;;;;;7.77;7.07;;;20.90;38.00;;;;;;10473548;28;20337;-80
2022/10/05 18:33:35;;;;;;;7.67;7.00;;;20.80;37.80;;;;;;10477076;28;20708;-79
2022/10/05 18:38:51;;;;;;;9.80;8.90;;;20.70;37.90;;;;;;10428228;28;20234;-79
2022/10/05 18:44:05;;;;;;;8.87;7.97;;;20.60;38.10;;;;;;10481025;28;20243;-80
2022/10/05 18:49:22;;;;;;;6.30;5.80;;;20.50;38.90;;;;;;10479387;28;20216;-81
2022/10/05 18:54:43;;;;;;;6.00;5.43;;;20.40;37.90;;;;;;10477175;28;20235;-79
2022/10/05 18:59:54;;;;;;;6.43;5.03;;;20.10;38.20;;;;;;10474422;28;20232;-79
2022/10/05 19:05:10;;;;;;;5.67;4.80;;;20.00;38.40;;;;;;10471083;28;20247;-78
2022/10/05 19:10:41;;;;;;;4.30;3.90;;;19.90;38.60;;;;;;10473931;28;20232;-79
2022/10/05 19:15:54;;;;;;;4.90;4.33;;;19.70;38.50;;;;;;10467910;28;20228;-78
2022/10/05 19:21:06;;;;;;;6.27;5.67;;;19.70;38.40;;;;;;10463831;28;20312;-78
2022/10/05 19:26:15;;;;;;;6.10;5.50;;;19.60;38.30;;;;;;10462449;28;20793;-78
2022/10/05 19:31:29;;;;;;;6.87;5.93;;;19.50;38.40;;;;;;10472375;28;20237;-79
2022/10/05 19:36:44;;;;;;;6.53;5.80;;;19.40;38.40;;;;;;10477544;28;20235;-80
2022/10/05 19:42:00;;;;;;;6.20;5.37;;;19.30;38.20;;;;;;10484153;28;20224;-80
2022/10/05 19:47:16;;;;;;;5.90;5.30;;;19.30;38.40;;;;;;10487695;28;20228;-79
2022/10/05 19:52:27;;;;;;;5.83;5.27;;;19.20;38.60;;;;;;10480329;28;20741;-79
2022/10/05 19:57:31;;;;;;;5.03;4.53;;;19.10;38.60;;;;;;10482916;28;20229;-79
2022/10/05 20:02:35;;;;;;;5.30;4.83;;;19.00;38.30;;;;;;10483826;28;20239;-81
2022/10/05 20:07:44;;;;;;;4.97;4.57;;;19.00;38.40;;;;;;10492063;28;20247;-79
2022/10/05 20:12:51;;;;;;;6.23;4.57;;;18.80;38.10;;;;;;10473443;28;20286;-79
2022/10/05 20:23:23;;;;;;;6.07;4.90;;;18.70;38.10;;;;;;10408802;28;21742;-78
2022/10/05 20:28:30;;;;;;;5.53;4.80;;;18.50;38.10;;;;;;10477494;28;20248;-79
2022/10/05 20:33:37;;;;;;;5.67;5.20;;;18.50;38.40;;;;;;10479095;28;20260;-79
2022/10/05 20:38:42;;;;;;;4.90;4.50;;;18.30;38.30;;;;;;10474258;28;20227;-79
2022/10/05 20:43:46;;;;;;;5.60;5.10;;;18.30;38.30;;;;;;10477513;28;20243;-78
2022/10/05 20:48:52;;;;;;;5.40;5.00;;;18.20;38.20;;;;;;10473678;28;20259;-78
2022/10/05 20:53:56;;;;;;;5.23;4.53;;;18.10;38.20;;;;;;10473154;28;20704;-78
2022/10/05 20:58:59;;;;;;;4.90;4.50;;;18.00;38.20;;;;;;10479847;28;20233;-78
2022/10/05 21:04:05;;;;;;;4.83;4.43;;;17.90;38.20;;;;;;10474803;28;20888;-78
2022/10/05 21:09:10;;;;;;;4.40;4.10;;;17.80;38.40;;;;;;10479408;28;20585;-79
2022/10/05 21:14:14;;;;;;;5.13;4.20;;;17.70;38.20;;;;;;10469435;28;20245;-78
2022/10/05 21:19:19;;;;;;;5.47;4.83;;;17.60;38.30;;;;;;10480344;28;20281;-78
2022/10/05 21:24:22;;;;;;;4.47;4.07;;;17.50;38.40;;;;;;10478385;28;20310;-78
2022/10/05 21:29:25;;;;;;;5.03;4.30;;;17.30;38.20;;;;;;10477569;28;20541;-79
2022/10/05 21:34:30;;;;;;;4.20;3.90;;;17.20;38.40;;;;;;10473435;28;20693;-78
2022/10/05 21:39:34;;;;;;;4.97;4.47;;;17.10;38.50;;;;;;10472269;28;20900;-79
2022/10/05 21:44:37;;;;;;;4.93;3.83;;;17.10;38.60;;;;;;10474962;28;20220;-78
2022/10/05 21:49:41;;;;;;;4.53;4.07;;;17.10;38.60;;;;;;10471562;28;20232;-78
2022/10/05 21:54:45;;;;;;;4.93;4.50;;;17.00;38.70;;;;;;10475239;28;20274;-79
2022/10/05 21:59:49;;;;;;;5.87;4.13;;;17.00;38.50;;;;;;10475579;28;20241;-78
2022/10/05 22:04:53;;;;;;;4.67;4.27;;;16.80;38.30;;;;;;10475642;28;20650;-79
2022/10/05 22:09:56;;;;;;;4.40;4.00;;;16.70;38.60;;;;;;10473748;28;20330;-79
2022/10/05 22:14:59;;;;;;;4.50;3.70;;;16.60;38.60;;;;;;10473171;28;20228;-79
2022/10/05 22:20:04;;;;;;;4.50;3.80;;;16.60;38.70;;;;;;10466741;28;20703;-79
2022/10/05 22:25:08;;;;;;;4.97;3.80;;;16.50;38.90;;;;;;10470521;28;20229;-79
2022/10/05 22:30:13;;;;;;;4.30;3.90;;;16.50;38.70;;;;;;10469860;28;20233;-79
2022/10/05 22:35:18;;;;;;;3.57;3.27;;;16.40;38.70;;;;;;10473857;28;20240;-79
2022/10/05 22:40:21;;;;;;;3.60;3.30;;;16.40;39.00;;;;;;10477382;28;20268;-78
2022/10/05 22:45:24;;;;;;;4.30;3.50;;;16.30;38.90;;;;;;10471686;28;20640;-79
2022/10/05 22:50:36;;;;;;;4.70;3.70;;;16.30;39.00;;;;;;10477098;28;20244;-78
2022/10/05 22:55:39;;;;;;;3.87;3.47;;;16.20;39.30;;;;;;10482978;28;20232;-79
2022/10/05 23:00:42;;;;;;;3.77;2.73;;;16.10;39.00;;;;;;10468275;28;20232;-79
2022/10/05 23:06:04;;;;;;;3.40;2.80;;;16.00;39.10;;;;;;10475607;28;20234;-78
2022/10/05 23:11:08;;;;;;;3.77;2.67;;;15.90;39.10;;;;;;10478580;28;20227;-79
2022/10/05 23:16:13;;;;;;;4.17;2.70;;;15.80;39.00;;;;;;10472606;28;20224;-78
2022/10/05 23:21:19;;;;;;;2.97;2.77;;;15.60;39.20;;;;;;10481173;28;20246;-78
2022/10/05 23:26:24;;;;;;;2.40;2.20;;;15.50;39.60;;;;;;10489915;28;20289;-79
2022/10/05 23:31:30;;;;;;;2.57;2.37;;;15.30;39.50;;;;;;10485953;28;20699;-79
2022/10/05 23:36:35;;;;;;;3.30;2.60;;;15.40;39.90;;;;;;10483805;28;20224;-79
2022/10/05 23:41:38;;;;;;;2.63;2.43;;;15.40;39.70;;;;;;10489567;28;20294;-79
2022/10/05 23:46:41;;;;;;;2.97;2.47;;;15.40;39.50;;;;;;10484001;28;20224;-79
2022/10/05 23:51:45;;;;;;;3.27;2.33;;;15.30;39.50;;;;;;10477993;28;20644;-78
2022/10/05 23:56:48;;;;;;;5.50;2.90;;;15.30;39.50;;;;;;10478981;28;20579;-79
